createdAt,value
2022-12-11T16:31:45.656Z,-2.28
2022-12-11T16:34:49.673Z,-1.94
2022-12-11T16:37:54.853Z,-1.89
2022-12-11T16:41:02.074Z,-1.92
2022-12-11T16:44:06.701Z,-1.98
2022-12-11T16:47:11.879Z,-1.98
2022-12-11T16:50:17.416Z,-2.26
2022-12-11T16:53:21.320Z,-2.29
2022-12-11T16:56:25.505Z,-2.26
2022-12-11T16:59:33.713Z,-2.08
2022-12-11T17:02:42.646Z,-1.85
2022-12-11T17:05:46.610Z,-1.78
2022-12-11T17:08:50.376Z,-1.72
2022-12-11T17:11:54.696Z,-1.79
2022-12-11T17:14:58.766Z,-1.70
2022-12-11T17:18:04.371Z,-1.75
2022-12-11T17:21:09.422Z,-1.77
2022-12-11T17:24:13.164Z,-1.70
2022-12-11T17:27:17.001Z,-1.70
2022-12-11T17:30:20.785Z,-1.67
2022-12-11T17:33:25.911Z,-1.72
2022-12-11T17:36:29.925Z,-1.73
2022-12-11T17:39:33.812Z,-1.72
2022-12-11T17:42:37.644Z,-1.72
2022-12-11T17:45:45.832Z,-1.74
2022-12-11T17:48:51.040Z,-1.69
2022-12-11T17:51:55.521Z,-1.72
2022-12-11T17:54:59.345Z,-1.70
2022-12-11T17:58:03.365Z,-1.75
2022-12-11T18:01:09.225Z,-1.79
2022-12-11T18:04:14.506Z,-1.79
2022-12-11T18:07:19.256Z,-1.75
2022-12-11T18:10:23.014Z,-1.75
2022-12-11T18:13:26.920Z,-1.73
2022-12-11T18:16:33.163Z,-1.77
2022-12-11T18:19:44.438Z,-1.74
2022-12-11T18:22:49.773Z,-1.64
2022-12-11T18:25:53.897Z,-1.62
2022-12-11T18:28:57.724Z,-1.65
2022-12-11T18:32:01.605Z,-1.60
2022-12-11T18:35:07.729Z,-1.58
2022-12-11T18:38:12.690Z,-1.58
2022-12-11T18:41:18.023Z,-1.62
2022-12-11T18:44:22.768Z,-1.65
2022-12-11T18:47:26.919Z,-1.57
2022-12-11T18:50:32.068Z,-1.60
2022-12-11T18:53:36.900Z,-1.68
2022-12-11T18:56:41.778Z,-1.67
2022-12-11T18:59:45.576Z,-1.79
2022-12-11T19:02:51.444Z,-1.89
2022-12-11T19:05:56.717Z,-1.85
2022-12-11T19:09:01.106Z,-1.73
2022-12-11T19:12:05.489Z,-1.74
2022-12-11T19:15:10.886Z,-1.71
2022-12-11T19:18:14.963Z,-1.71
2022-12-11T19:21:21.243Z,-1.62
2022-12-11T19:24:25.734Z,-1.60
2022-12-11T19:27:29.591Z,-1.53
2022-12-11T19:30:33.329Z,-1.61
2022-12-11T19:33:37.229Z,-1.49
2022-12-11T19:36:42.365Z,-1.52
2022-12-11T19:39:46.387Z,-1.45
2022-12-11T19:42:50.404Z,-1.43
2022-12-11T19:45:54.164Z,-1.41
2022-12-11T19:48:59.692Z,-1.34
2022-12-11T19:52:07.247Z,-1.35
2022-12-11T19:55:13.500Z,-1.53
2022-12-11T19:58:17.493Z,-1.56
2022-12-11T20:01:25.885Z,-1.60
2022-12-11T20:04:30.428Z,-1.53
2022-12-11T20:07:35.853Z,-1.45
2022-12-11T20:10:39.817Z,-1.45
2022-12-11T20:13:45.780Z,-1.49
2022-12-11T20:20:14.424Z,-1.45
2022-12-11T20:23:19.759Z,-1.42
2022-12-11T20:26:25.299Z,-1.65
2022-12-11T20:29:29.108Z,-1.43
2022-12-11T20:32:33.462Z,-1.44
2022-12-11T20:35:37.357Z,-1.48
2022-12-11T20:38:42.737Z,-1.56
2022-12-11T20:41:46.473Z,-1.45
2022-12-11T20:44:50.363Z,-1.59
2022-12-11T20:47:54.369Z,-1.65
2022-12-11T20:51:00.895Z,-1.66
2022-12-11T20:54:06.154Z,-1.68
2022-12-11T20:57:10.367Z,-1.59
2022-12-11T21:00:15.054Z,-1.66
2022-12-11T21:03:19.001Z,-1.77
2022-12-11T21:06:25.844Z,-1.74
2022-12-11T21:09:31.038Z,-1.78
2022-12-11T21:12:35.166Z,-1.73
2022-12-11T21:15:40.149Z,-1.71
2022-12-11T21:18:44.402Z,-1.67
2022-12-11T21:21:48.728Z,-1.71
2022-12-11T21:24:53.877Z,-1.65
2022-12-11T21:27:57.674Z,-1.70
2022-12-11T21:31:02.826Z,-1.68
2022-12-11T21:34:07.271Z,-1.68
